Pamukkale, Turkey
Current Conditions -  °F | °C
As of 9:50 AM on Wednesday 22 Oct 2014 (Local Time) from LTAY Reporting Station
Scattered Clouds Scattered Clouds  
Wind Chill: 16°   Ceiling: Unl
Heat Index: 16°   Visibility: 6mi
Dew Point:   Wind: 20mph
Humidity: 59%   Direction: 150°SSE
Pressure: 30"   Gusts: NA
Location:  37.89°N, 29.13°E
Report Text: LTAY 220650Z 15017KT 9999 FEW035 SCT100 16/08 Q1016
Loading
Personal Weather Stations






























Interactive Weather Map
Tropical Storm Tracking
New forecast layout! Learn more

10-Day Weather Forecast

Advertisements
Track Severe Weather on mobile